sensor_id;sensor_type;location;lat;lon;timestamp;P1;durP1;ratioP1;P2;durP2;ratioP2
3767;SDS011;1899;49.966;7.106;2024-01-27T00:02:16;6.70;;;2.40;;
3767;SDS011;1899;49.966;7.106;2024-01-27T00:04:41;5.53;;;2.40;;
3767;SDS011;1899;49.966;7.106;2024-01-27T00:07:07;6.03;;;2.73;;
3767;SDS011;1899;49.966;7.106;2024-01-27T00:09:32;4.93;;;2.80;;
3767;SDS011;1899;49.966;7.106;2024-01-27T00:11:57;5.47;;;3.13;;
3767;SDS011;1899;49.966;7.106;2024-01-27T00:14:23;7.37;;;3.27;;
3767;SDS011;1899;49.966;7.106;2024-01-27T00:16:48;6.67;;;2.70;;
3767;SDS011;1899;49.966;7.106;2024-01-27T00:19:13;8.67;;;4.10;;
3767;SDS011;1899;49.966;7.106;2024-01-27T00:21:38;5.67;;;3.00;;
3767;SDS011;1899;49.966;7.106;2024-01-27T00:24:04;5.50;;;2.57;;
3767;SDS011;1899;49.966;7.106;2024-01-27T00:26:29;8.00;;;3.50;;
3767;SDS011;1899;49.966;7.106;2024-01-27T00:28:54;8.40;;;3.50;;
3767;SDS011;1899;49.966;7.106;2024-01-27T00:31:20;6.10;;;2.50;;
3767;SDS011;1899;49.966;7.106;2024-01-27T00:33:45;10.90;;;3.27;;
3767;SDS011;1899;49.966;7.106;2024-01-27T00:36:10;11.97;;;3.93;;
3767;SDS011;1899;49.966;7.106;2024-01-27T00:38:35;14.20;;;3.50;;
3767;SDS011;1899;49.966;7.106;2024-01-27T00:41:01;12.97;;;2.87;;
3767;SDS011;1899;49.966;7.106;2024-01-27T00:43:26;8.93;;;3.67;;
3767;SDS011;1899;49.966;7.106;2024-01-27T00:45:51;8.57;;;4.20;;
3767;SDS011;1899;49.966;7.106;2024-01-27T00:48:16;9.27;;;3.50;;
3767;SDS011;1899;49.966;7.106;2024-01-27T00:50:42;7.37;;;3.10;;
3767;SDS011;1899;49.966;7.106;2024-01-27T00:53:07;6.33;;;3.20;;
3767;SDS011;1899;49.966;7.106;2024-01-27T00:55:32;6.20;;;3.37;;
3767;SDS011;1899;49.966;7.106;2024-01-27T00:57:57;6.73;;;3.20;;
3767;SDS011;1899;49.966;7.106;2024-01-27T01:00:23;6.63;;;2.80;;
3767;SDS011;1899;49.966;7.106;2024-01-27T01:02:48;6.90;;;3.80;;
3767;SDS011;1899;49.966;7.106;2024-01-27T01:05:13;10.20;;;3.30;;
3767;SDS011;1899;49.966;7.106;2024-01-27T01:07:39;7.43;;;2.90;;
3767;SDS011;1899;49.966;7.106;2024-01-27T01:10:04;8.40;;;2.90;;
3767;SDS011;1899;49.966;7.106;2024-01-27T01:12:30;11.13;;;4.67;;
3767;SDS011;1899;49.966;7.106;2024-01-27T01:14:55;5.00;;;2.73;;
3767;SDS011;1899;49.966;7.106;2024-01-27T01:17:21;8.57;;;4.50;;
3767;SDS011;1899;49.966;7.106;2024-01-27T01:19:46;10.20;;;3.40;;
3767;SDS011;1899;49.966;7.106;2024-01-27T01:22:11;7.57;;;3.20;;
3767;SDS011;1899;49.966;7.106;2024-01-27T01:24:37;7.30;;;3.30;;
3767;SDS011;1899;49.966;7.106;2024-01-27T01:27:02;8.30;;;3.13;;
3767;SDS011;1899;49.966;7.106;2024-01-27T01:29:28;9.90;;;3.43;;
3767;SDS011;1899;49.966;7.106;2024-01-27T01:31:53;8.30;;;3.57;;
3767;SDS011;1899;49.966;7.106;2024-01-27T01:34:18;6.83;;;3.63;;
3767;SDS011;1899;49.966;7.106;2024-01-27T01:36:44;7.30;;;2.77;;
3767;SDS011;1899;49.966;7.106;2024-01-27T01:39:10;8.93;;;3.25;;
3767;SDS011;1899;49.966;7.106;2024-01-27T01:41:36;6.87;;;3.53;;
3767;SDS011;1899;49.966;7.106;2024-01-27T01:44:01;10.80;;;3.33;;
3767;SDS011;1899;49.966;7.106;2024-01-27T01:46:26;8.30;;;3.67;;
3767;SDS011;1899;49.966;7.106;2024-01-27T01:48:51;9.87;;;3.23;;
3767;SDS011;1899;49.966;7.106;2024-01-27T01:51:17;8.80;;;3.10;;
3767;SDS011;1899;49.966;7.106;2024-01-27T01:53:42;6.03;;;2.77;;
3767;SDS011;1899;49.966;7.106;2024-01-27T01:56:08;12.03;;;3.87;;
3767;SDS011;1899;49.966;7.106;2024-01-27T01:58:33;9.50;;;4.40;;
3767;SDS011;1899;49.966;7.106;2024-01-27T02:01:02;7.40;;;3.57;;
3767;SDS011;1899;49.966;7.106;2024-01-27T02:03:27;9.77;;;2.85;;
3767;SDS011;1899;49.966;7.106;2024-01-27T02:05:53;7.00;;;2.87;;
3767;SDS011;1899;49.966;7.106;2024-01-27T02:08:18;7.63;;;4.10;;
3767;SDS011;1899;49.966;7.106;2024-01-27T02:10:43;6.40;;;2.70;;
3767;SDS011;1899;49.966;7.106;2024-01-27T02:13:18;6.33;;;2.97;;
3767;SDS011;1899;49.966;7.106;2024-01-27T02:15:44;10.25;;;2.80;;
3767;SDS011;1899;49.966;7.106;2024-01-27T02:18:09;7.80;;;4.30;;
3767;SDS011;1899;49.966;7.106;2024-01-27T02:20:34;10.53;;;2.80;;
3767;SDS011;1899;49.966;7.106;2024-01-27T02:23:00;8.67;;;3.20;;
3767;SDS011;1899;49.966;7.106;2024-01-27T02:25:28;8.02;;;3.67;;
3767;SDS011;1899;49.966;7.106;2024-01-27T02:27:54;6.83;;;3.10;;
3767;SDS011;1899;49.966;7.106;2024-01-27T02:30:19;7.37;;;3.40;;
3767;SDS011;1899;49.966;7.106;2024-01-27T02:32:44;8.40;;;3.77;;
3767;SDS011;1899;49.966;7.106;2024-01-27T02:35:09;11.00;;;3.50;;
3767;SDS011;1899;49.966;7.106;2024-01-27T02:37:35;6.93;;;3.40;;
3767;SDS011;1899;49.966;7.106;2024-01-27T02:40:00;9.67;;;3.63;;
3767;SDS011;1899;49.966;7.106;2024-01-27T02:42:25;9.00;;;3.90;;
3767;SDS011;1899;49.966;7.106;2024-01-27T02:44:50;7.60;;;4.10;;
3767;SDS011;1899;49.966;7.106;2024-01-27T02:47:16;13.10;;;3.80;;
3767;SDS011;1899;49.966;7.106;2024-01-27T02:49:41;7.43;;;3.40;;
3767;SDS011;1899;49.966;7.106;2024-01-27T02:52:06;11.50;;;3.50;;
3767;SDS011;1899;49.966;7.106;2024-01-27T02:54:31;8.70;;;3.30;;
3767;SDS011;1899;49.966;7.106;2024-01-27T02:56:57;8.30;;;4.10;;
3767;SDS011;1899;49.966;7.106;2024-01-27T02:59:22;6.17;;;3.13;;
3767;SDS011;1899;49.966;7.106;2024-01-27T03:01:47;8.47;;;3.30;;
3767;SDS011;1899;49.966;7.106;2024-01-27T03:04:12;6.30;;;2.70;;
3767;SDS011;1899;49.966;7.106;2024-01-27T03:06:38;11.50;;;4.10;;
3767;SDS011;1899;49.966;7.106;2024-01-27T03:09:03;8.20;;;3.73;;
3767;SDS011;1899;49.966;7.106;2024-01-27T03:11:28;6.07;;;3.00;;
3767;SDS011;1899;49.966;7.106;2024-01-27T03:13:54;6.87;;;3.33;;
3767;SDS011;1899;49.966;7.106;2024-01-27T03:16:19;6.53;;;3.27;;
3767;SDS011;1899;49.966;7.106;2024-01-27T03:18:45;7.60;;;3.30;;
3767;SDS011;1899;49.966;7.106;2024-01-27T03:21:10;8.90;;;2.83;;
3767;SDS011;1899;49.966;7.106;2024-01-27T03:23:35;9.27;;;3.17;;
3767;SDS011;1899;49.966;7.106;2024-01-27T03:26:02;8.13;;;3.17;;
3767;SDS011;1899;49.966;7.106;2024-01-27T03:28:27;10.95;;;4.63;;
3767;SDS011;1899;49.966;7.106;2024-01-27T03:30:52;6.10;;;3.10;;
3767;SDS011;1899;49.966;7.106;2024-01-27T03:33:17;6.20;;;3.03;;
3767;SDS011;1899;49.966;7.106;2024-01-27T03:35:43;9.93;;;4.17;;
3767;SDS011;1899;49.966;7.106;2024-01-27T03:38:08;10.10;;;3.50;;
3767;SDS011;1899;49.966;7.106;2024-01-27T03:40:33;11.27;;;3.80;;
3767;SDS011;1899;49.966;7.106;2024-01-27T03:42:59;10.50;;;3.50;;
3767;SDS011;1899;49.966;7.106;2024-01-27T03:45:24;9.00;;;3.50;;
3767;SDS011;1899;49.966;7.106;2024-01-27T03:47:49;5.67;;;3.00;;
3767;SDS011;1899;49.966;7.106;2024-01-27T03:50:14;9.00;;;3.27;;
3767;SDS011;1899;49.966;7.106;2024-01-27T03:52:41;10.83;;;2.93;;
3767;SDS011;1899;49.966;7.106;2024-01-27T03:55:06;5.63;;;2.35;;
3767;SDS011;1899;49.966;7.106;2024-01-27T03:57:31;9.50;;;3.30;;
3767;SDS011;1899;49.966;7.106;2024-01-27T03:59:56;7.67;;;2.43;;
3767;SDS011;1899;49.966;7.106;2024-01-27T04:02:22;9.53;;;3.10;;
3767;SDS011;1899;49.966;7.106;2024-01-27T04:04:47;13.10;;;2.77;;
3767;SDS011;1899;49.966;7.106;2024-01-27T04:07:12;13.83;;;2.97;;
3767;SDS011;1899;49.966;7.106;2024-01-27T04:09:37;6.70;;;2.63;;
3767;SDS011;1899;49.966;7.106;2024-01-27T04:12:03;7.17;;;3.00;;
3767;SDS011;1899;49.966;7.106;2024-01-27T04:14:28;6.17;;;2.50;;
3767;SDS011;1899;49.966;7.106;2024-01-27T04:16:53;5.43;;;2.50;;
3767;SDS011;1899;49.966;7.106;2024-01-27T04:19:19;12.17;;;4.27;;
3767;SDS011;1899;49.966;7.106;2024-01-27T04:21:44;9.20;;;2.90;;
3767;SDS011;1899;49.966;7.106;2024-01-27T04:24:10;6.73;;;2.80;;
3767;SDS011;1899;49.966;7.106;2024-01-27T04:26:35;6.33;;;2.97;;
3767;SDS011;1899;49.966;7.106;2024-01-27T04:29:00;7.90;;;2.37;;
3767;SDS011;1899;49.966;7.106;2024-01-27T04:31:25;9.77;;;3.53;;
3767;SDS011;1899;49.966;7.106;2024-01-27T04:33:51;10.20;;;3.77;;
3767;SDS011;1899;49.966;7.106;2024-01-27T04:36:24;9.70;;;3.73;;
3767;SDS011;1899;49.966;7.106;2024-01-27T04:38:49;6.45;;;3.08;;
3767;SDS011;1899;49.966;7.106;2024-01-27T04:41:15;16.90;;;4.20;;
3767;SDS011;1899;49.966;7.106;2024-01-27T04:43:40;10.00;;;3.80;;
3767;SDS011;1899;49.966;7.106;2024-01-27T04:46:05;9.20;;;4.70;;
3767;SDS011;1899;49.966;7.106;2024-01-27T04:48:30;12.63;;;3.93;;
3767;SDS011;1899;49.966;7.106;2024-01-27T04:50:56;9.47;;;4.70;;
3767;SDS011;1899;49.966;7.106;2024-01-27T04:53:21;9.50;;;3.23;;
3767;SDS011;1899;49.966;7.106;2024-01-27T04:55:46;8.60;;;3.87;;
3767;SDS011;1899;49.966;7.106;2024-01-27T04:58:12;13.10;;;4.30;;
3767;SDS011;1899;49.966;7.106;2024-01-27T05:00:37;12.90;;;4.37;;
3767;SDS011;1899;49.966;7.106;2024-01-27T05:03:02;9.37;;;4.10;;
3767;SDS011;1899;49.966;7.106;2024-01-27T05:05:29;8.45;;;3.45;;
3767;SDS011;1899;49.966;7.106;2024-01-27T05:07:55;12.97;;;4.60;;
3767;SDS011;1899;49.966;7.106;2024-01-27T05:10:20;11.90;;;4.97;;
3767;SDS011;1899;49.966;7.106;2024-01-27T05:12:47;11.93;;;4.20;;
3767;SDS011;1899;49.966;7.106;2024-01-27T05:15:12;11.00;;;4.53;;
3767;SDS011;1899;49.966;7.106;2024-01-27T05:17:38;15.20;;;5.80;;
3767;SDS011;1899;49.966;7.106;2024-01-27T05:20:03;15.37;;;5.23;;
3767;SDS011;1899;49.966;7.106;2024-01-27T05:22:29;12.95;;;5.03;;
3767;SDS011;1899;49.966;7.106;2024-01-27T05:24:54;11.23;;;5.30;;
3767;SDS011;1899;49.966;7.106;2024-01-27T05:27:20;18.77;;;6.03;;
3767;SDS011;1899;49.966;7.106;2024-01-27T05:29:45;14.83;;;6.37;;
3767;SDS011;1899;49.966;7.106;2024-01-27T05:32:10;12.10;;;4.93;;
3767;SDS011;1899;49.966;7.106;2024-01-27T05:34:35;9.10;;;4.50;;
3767;SDS011;1899;49.966;7.106;2024-01-27T05:37:01;18.50;;;7.30;;
3767;SDS011;1899;49.966;7.106;2024-01-27T05:39:26;11.90;;;5.13;;
3767;SDS011;1899;49.966;7.106;2024-01-27T05:41:51;13.50;;;5.40;;
3767;SDS011;1899;49.966;7.106;2024-01-27T05:44:16;13.00;;;4.83;;
3767;SDS011;1899;49.966;7.106;2024-01-27T05:46:42;16.90;;;6.20;;
3767;SDS011;1899;49.966;7.106;2024-01-27T05:49:07;11.00;;;6.07;;
3767;SDS011;1899;49.966;7.106;2024-01-27T05:51:32;27.50;;;7.40;;
3767;SDS011;1899;49.966;7.106;2024-01-27T05:53:58;10.25;;;5.40;;
3767;SDS011;1899;49.966;7.106;2024-01-27T05:56:24;13.77;;;5.30;;
3767;SDS011;1899;49.966;7.106;2024-01-27T05:58:49;12.47;;;4.33;;
3767;SDS011;1899;49.966;7.106;2024-01-27T06:01:14;40.67;;;6.30;;
3767;SDS011;1899;49.966;7.106;2024-01-27T06:03:43;18.83;;;4.77;;
3767;SDS011;1899;49.966;7.106;2024-01-27T06:06:08;10.48;;;5.05;;
3767;SDS011;1899;49.966;7.106;2024-01-27T06:08:34;11.80;;;3.57;;
3767;SDS011;1899;49.966;7.106;2024-01-27T06:10:59;15.77;;;5.10;;
3767;SDS011;1899;49.966;7.106;2024-01-27T06:13:24;12.07;;;5.17;;
3767;SDS011;1899;49.966;7.106;2024-01-27T06:15:49;11.17;;;4.80;;
3767;SDS011;1899;49.966;7.106;2024-01-27T06:18:15;17.38;;;5.82;;
3767;SDS011;1899;49.966;7.106;2024-01-27T06:20:41;27.87;;;6.73;;
3767;SDS011;1899;49.966;7.106;2024-01-27T06:23:06;16.90;;;5.80;;
3767;SDS011;1899;49.966;7.106;2024-01-27T06:25:32;29.10;;;5.70;;
3767;SDS011;1899;49.966;7.106;2024-01-27T06:27:57;61.40;;;10.30;;
3767;SDS011;1899;49.966;7.106;2024-01-27T06:30:22;25.77;;;6.07;;
3767;SDS011;1899;49.966;7.106;2024-01-27T06:32:47;24.40;;;6.93;;
3767;SDS011;1899;49.966;7.106;2024-01-27T06:35:13;88.53;;;10.93;;
3767;SDS011;1899;49.966;7.106;2024-01-27T06:37:38;10.50;;;5.47;;
3767;SDS011;1899;49.966;7.106;2024-01-27T06:40:03;11.47;;;3.87;;
3767;SDS011;1899;49.966;7.106;2024-01-27T06:42:29;12.03;;;5.10;;
3767;SDS011;1899;49.966;7.106;2024-01-27T06:44:54;8.53;;;4.37;;
3767;SDS011;1899;49.966;7.106;2024-01-27T06:47:19;8.63;;;3.70;;
3767;SDS011;1899;49.966;7.106;2024-01-27T06:49:44;14.10;;;4.33;;
3767;SDS011;1899;49.966;7.106;2024-01-27T06:52:10;12.50;;;4.53;;
3767;SDS011;1899;49.966;7.106;2024-01-27T06:54:37;14.23;;;5.00;;
3767;SDS011;1899;49.966;7.106;2024-01-27T06:57:06;14.18;;;5.22;;
3767;SDS011;1899;49.966;7.106;2024-01-27T06:59:31;25.13;;;5.30;;
3767;SDS011;1899;49.966;7.106;2024-01-27T07:01:56;14.13;;;5.53;;
3767;SDS011;1899;49.966;7.106;2024-01-27T07:04:22;16.83;;;5.97;;
3767;SDS011;1899;49.966;7.106;2024-01-27T07:06:48;12.32;;;5.15;;
3767;SDS011;1899;49.966;7.106;2024-01-27T07:09:13;13.70;;;6.20;;
3767;SDS011;1899;49.966;7.106;2024-01-27T07:11:38;19.60;;;5.63;;
3767;SDS011;1899;49.966;7.106;2024-01-27T07:14:04;16.97;;;5.97;;
3767;SDS011;1899;49.966;7.106;2024-01-27T07:16:29;11.63;;;4.40;;
3767;SDS011;1899;49.966;7.106;2024-01-27T07:18:54;28.10;;;6.10;;
3767;SDS011;1899;49.966;7.106;2024-01-27T07:21:20;22.40;;;6.17;;
3767;SDS011;1899;49.966;7.106;2024-01-27T07:23:45;19.97;;;5.40;;
3767;SDS011;1899;49.966;7.106;2024-01-27T07:26:10;40.83;;;7.20;;
3767;SDS011;1899;49.966;7.106;2024-01-27T07:28:36;20.87;;;6.00;;
3767;SDS011;1899;49.966;7.106;2024-01-27T07:31:01;11.83;;;4.47;;
3767;SDS011;1899;49.966;7.106;2024-01-27T07:33:26;16.43;;;5.57;;
3767;SDS011;1899;49.966;7.106;2024-01-27T07:35:51;14.50;;;5.23;;
3767;SDS011;1899;49.966;7.106;2024-01-27T07:38:17;41.87;;;7.60;;
3767;SDS011;1899;49.966;7.106;2024-01-27T07:40:42;14.70;;;4.70;;
3767;SDS011;1899;49.966;7.106;2024-01-27T07:43:07;63.67;;;8.50;;
3767;SDS011;1899;49.966;7.106;2024-01-27T07:45:33;31.13;;;6.57;;
3767;SDS011;1899;49.966;7.106;2024-01-27T07:47:58;14.23;;;5.40;;
3767;SDS011;1899;49.966;7.106;2024-01-27T07:50:23;21.40;;;6.30;;
3767;SDS011;1899;49.966;7.106;2024-01-27T07:52:49;64.13;;;8.20;;
3767;SDS011;1899;49.966;7.106;2024-01-27T07:55:14;23.77;;;5.57;;
3767;SDS011;1899;49.966;7.106;2024-01-27T07:57:39;20.47;;;6.40;;
3767;SDS011;1899;49.966;7.106;2024-01-27T08:00:05;30.00;;;8.10;;
3767;SDS011;1899;49.966;7.106;2024-01-27T08:02:31;23.73;;;6.38;;
3767;SDS011;1899;49.966;7.106;2024-01-27T08:04:56;50.40;;;8.87;;
3767;SDS011;1899;49.966;7.106;2024-01-27T08:07:22;22.73;;;6.70;;
3767;SDS011;1899;49.966;7.106;2024-01-27T08:09:47;11.30;;;5.87;;
3767;SDS011;1899;49.966;7.106;2024-01-27T08:12:13;17.53;;;6.83;;
3767;SDS011;1899;49.966;7.106;2024-01-27T08:14:38;56.53;;;9.50;;
3767;SDS011;1899;49.966;7.106;2024-01-27T08:17:04;14.85;;;6.07;;
3767;SDS011;1899;49.966;7.106;2024-01-27T08:19:30;39.57;;;7.97;;
3767;SDS011;1899;49.966;7.106;2024-01-27T08:21:55;16.50;;;6.00;;
3767;SDS011;1899;49.966;7.106;2024-01-27T08:24:20;14.63;;;5.60;;
3767;SDS011;1899;49.966;7.106;2024-01-27T08:26:47;43.40;;;8.60;;
3767;SDS011;1899;49.966;7.106;2024-01-27T08:29:13;14.03;;;6.17;;
3767;SDS011;1899;49.966;7.106;2024-01-27T08:31:38;14.57;;;5.53;;
3767;SDS011;1899;49.966;7.106;2024-01-27T08:34:03;15.33;;;6.97;;
3767;SDS011;1899;49.966;7.106;2024-01-27T08:36:29;25.97;;;8.30;;
3767;SDS011;1899;49.966;7.106;2024-01-27T08:38:54;30.77;;;7.43;;
3767;SDS011;1899;49.966;7.106;2024-01-27T08:41:19;18.43;;;6.30;;
3767;SDS011;1899;49.966;7.106;2024-01-27T08:43:45;15.80;;;5.90;;
3767;SDS011;1899;49.966;7.106;2024-01-27T08:46:10;22.13;;;6.30;;
3767;SDS011;1899;49.966;7.106;2024-01-27T08:48:37;15.18;;;7.03;;
3767;SDS011;1899;49.966;7.106;2024-01-27T08:51:02;10.17;;;5.37;;
3767;SDS011;1899;49.966;7.106;2024-01-27T08:53:28;17.80;;;6.63;;
3767;SDS011;1899;49.966;7.106;2024-01-27T08:55:53;29.23;;;7.83;;
3767;SDS011;1899;49.966;7.106;2024-01-27T08:58:18;22.73;;;6.63;;
3767;SDS011;1899;49.966;7.106;2024-01-27T09:00:43;21.50;;;6.93;;
3767;SDS011;1899;49.966;7.106;2024-01-27T09:03:09;12.83;;;5.70;;
3767;SDS011;1899;49.966;7.106;2024-01-27T09:05:34;36.73;;;6.60;;
3767;SDS011;1899;49.966;7.106;2024-01-27T09:07:59;12.40;;;5.73;;
3767;SDS011;1899;49.966;7.106;2024-01-27T09:10:25;18.43;;;5.37;;
3767;SDS011;1899;49.966;7.106;2024-01-27T09:12:50;28.50;;;7.60;;
3767;SDS011;1899;49.966;7.106;2024-01-27T09:15:16;22.95;;;6.75;;
3767;SDS011;1899;49.966;7.106;2024-01-27T09:17:41;23.10;;;7.83;;
3767;SDS011;1899;49.966;7.106;2024-01-27T09:20:08;26.38;;;7.88;;
3767;SDS011;1899;49.966;7.106;2024-01-27T09:22:33;12.87;;;4.87;;
3767;SDS011;1899;49.966;7.106;2024-01-27T09:24:59;35.17;;;9.03;;
3767;SDS011;1899;49.966;7.106;2024-01-27T09:27:24;14.37;;;5.30;;
3767;SDS011;1899;49.966;7.106;2024-01-27T09:29:49;16.57;;;7.10;;
3767;SDS011;1899;49.966;7.106;2024-01-27T09:32:14;52.80;;;7.60;;
3767;SDS011;1899;49.966;7.106;2024-01-27T09:34:40;34.97;;;8.90;;
3767;SDS011;1899;49.966;7.106;2024-01-27T09:37:05;19.17;;;6.53;;
3767;SDS011;1899;49.966;7.106;2024-01-27T09:39:30;22.53;;;6.90;;
3767;SDS011;1899;49.966;7.106;2024-01-27T09:41:55;25.07;;;6.50;;
3767;SDS011;1899;49.966;7.106;2024-01-27T09:44:21;21.20;;;6.83;;
3767;SDS011;1899;49.966;7.106;2024-01-27T09:46:47;38.05;;;7.72;;
3767;SDS011;1899;49.966;7.106;2024-01-27T09:49:13;21.60;;;7.67;;
3767;SDS011;1899;49.966;7.106;2024-01-27T09:51:40;28.53;;;7.53;;
3767;SDS011;1899;49.966;7.106;2024-01-27T09:54:06;11.68;;;6.25;;
3767;SDS011;1899;49.966;7.106;2024-01-27T09:56:31;23.67;;;6.60;;
3767;SDS011;1899;49.966;7.106;2024-01-27T09:58:57;55.67;;;9.23;;
3767;SDS011;1899;49.966;7.106;2024-01-27T10:01:24;24.80;;;6.83;;
3767;SDS011;1899;49.966;7.106;2024-01-27T10:03:50;23.60;;;6.50;;
3767;SDS011;1899;49.966;7.106;2024-01-27T10:06:16;10.57;;;5.07;;
3767;SDS011;1899;49.966;7.106;2024-01-27T10:08:41;14.60;;;5.97;;
3767;SDS011;1899;49.966;7.106;2024-01-27T10:11:08;30.75;;;6.70;;
3767;SDS011;1899;49.966;7.106;2024-01-27T10:13:34;13.02;;;6.18;;
3767;SDS011;1899;49.966;7.106;2024-01-27T10:16:03;22.87;;;7.37;;
3767;SDS011;1899;49.966;7.106;2024-01-27T10:18:29;52.00;;;14.43;;
3767;SDS011;1899;49.966;7.106;2024-01-27T10:20:54;18.33;;;6.40;;
3767;SDS011;1899;49.966;7.106;2024-01-27T10:23:19;20.40;;;6.43;;
3767;SDS011;1899;49.966;7.106;2024-01-27T10:25:45;53.17;;;11.30;;
3767;SDS011;1899;49.966;7.106;2024-01-27T10:28:10;58.20;;;9.77;;
3767;SDS011;1899;49.966;7.106;2024-01-27T10:30:35;13.23;;;6.53;;
3767;SDS011;1899;49.966;7.106;2024-01-27T10:33:01;25.67;;;9.50;;
3767;SDS011;1899;49.966;7.106;2024-01-27T10:35:26;21.23;;;7.90;;
3767;SDS011;1899;49.966;7.106;2024-01-27T10:37:52;37.97;;;11.33;;
3767;SDS011;1899;49.966;7.106;2024-01-27T10:40:18;12.77;;;6.88;;
3767;SDS011;1899;49.966;7.106;2024-01-27T10:42:43;40.20;;;11.23;;
3767;SDS011;1899;49.966;7.106;2024-01-27T10:45:09;36.73;;;11.00;;
3767;SDS011;1899;49.966;7.106;2024-01-27T10:47:36;27.65;;;11.00;;
3767;SDS011;1899;49.966;7.106;2024-01-27T10:50:01;24.67;;;8.27;;
3767;SDS011;1899;49.966;7.106;2024-01-27T10:52:31;32.30;;;10.00;;
3767;SDS011;1899;49.966;7.106;2024-01-27T10:54:59;80.30;;;14.95;;
3767;SDS011;1899;49.966;7.106;2024-01-27T10:57:31;42.47;;;12.77;;
3767;SDS011;1899;49.966;7.106;2024-01-27T10:59:57;39.75;;;12.43;;
3767;SDS011;1899;49.966;7.106;2024-01-27T11:02:23;24.50;;;9.87;;
3767;SDS011;1899;49.966;7.106;2024-01-27T11:04:49;24.08;;;10.20;;
3767;SDS011;1899;49.966;7.106;2024-01-27T11:07:16;31.45;;;11.60;;
3767;SDS011;1899;49.966;7.106;2024-01-27T11:09:42;17.73;;;9.25;;
3767;SDS011;1899;49.966;7.106;2024-01-27T11:12:08;20.93;;;9.80;;
3767;SDS011;1899;49.966;7.106;2024-01-27T11:14:34;26.50;;;10.53;;
3767;SDS011;1899;49.966;7.106;2024-01-27T11:16:59;16.50;;;8.50;;
3767;SDS011;1899;49.966;7.106;2024-01-27T11:19:24;49.07;;;12.47;;
3767;SDS011;1899;49.966;7.106;2024-01-27T11:22:02;35.30;;;11.00;;
3767;SDS011;1899;49.966;7.106;2024-01-27T11:24:28;25.70;;;10.65;;
3767;SDS011;1899;49.966;7.106;2024-01-27T11:27:03;35.87;;;11.37;;
3767;SDS011;1899;49.966;7.106;2024-01-27T11:29:29;17.58;;;10.50;;
3767;SDS011;1899;49.966;7.106;2024-01-27T11:31:55;33.37;;;11.00;;
3767;SDS011;1899;49.966;7.106;2024-01-27T11:34:20;23.13;;;8.85;;
3767;SDS011;1899;49.966;7.106;2024-01-27T11:36:46;28.10;;;10.03;;
3767;SDS011;1899;49.966;7.106;2024-01-27T11:39:31;16.00;;;8.00;;
3767;SDS011;1899;49.966;7.106;2024-01-27T11:42:06;16.70;;;8.52;;
3767;SDS011;1899;49.966;7.106;2024-01-27T11:44:35;24.98;;;9.68;;
3767;SDS011;1899;49.966;7.106;2024-01-27T11:47:00;53.40;;;13.40;;
3767;SDS011;1899;49.966;7.106;2024-01-27T11:49:25;25.20;;;10.40;;
3767;SDS011;1899;49.966;7.106;2024-01-27T11:51:51;18.53;;;10.23;;
3767;SDS011;1899;49.966;7.106;2024-01-27T11:54:17;16.73;;;7.73;;
3767;SDS011;1899;49.966;7.106;2024-01-27T11:56:42;22.53;;;8.70;;
3767;SDS011;1899;49.966;7.106;2024-01-27T11:59:07;15.73;;;8.53;;
3767;SDS011;1899;49.966;7.106;2024-01-27T12:01:32;14.70;;;6.93;;
3767;SDS011;1899;49.966;7.106;2024-01-27T12:03:58;15.07;;;7.50;;
3767;SDS011;1899;49.966;7.106;2024-01-27T12:06:23;13.80;;;7.03;;
3767;SDS011;1899;49.966;7.106;2024-01-27T12:08:49;19.60;;;7.30;;
3767;SDS011;1899;49.966;7.106;2024-01-27T12:11:17;15.30;;;8.18;;
3767;SDS011;1899;49.966;7.106;2024-01-27T12:13:42;12.67;;;7.30;;
3767;SDS011;1899;49.966;7.106;2024-01-27T12:16:08;20.00;;;8.00;;
3767;SDS011;1899;49.966;7.106;2024-01-27T12:18:34;22.50;;;8.93;;
3767;SDS011;1899;49.966;7.106;2024-01-27T12:20:59;30.43;;;9.50;;
3767;SDS011;1899;49.966;7.106;2024-01-27T12:23:24;12.57;;;7.50;;
3767;SDS011;1899;49.966;7.106;2024-01-27T12:25:53;16.77;;;8.93;;
3767;SDS011;1899;49.966;7.106;2024-01-27T12:28:19;16.92;;;8.15;;
3767;SDS011;1899;49.966;7.106;2024-01-27T12:30:45;13.27;;;7.27;;
3767;SDS011;1899;49.966;7.106;2024-01-27T12:33:11;28.80;;;9.90;;
3767;SDS011;1899;49.966;7.106;2024-01-27T12:35:37;16.73;;;7.70;;
3767;SDS011;1899;49.966;7.106;2024-01-27T12:38:02;15.90;;;7.80;;
3767;SDS011;1899;49.966;7.106;2024-01-27T12:40:28;16.10;;;7.40;;
3767;SDS011;1899;49.966;7.106;2024-01-27T12:42:53;13.13;;;7.30;;
3767;SDS011;1899;49.966;7.106;2024-01-27T12:45:19;12.30;;;7.13;;
3767;SDS011;1899;49.966;7.106;2024-01-27T12:47:44;12.67;;;7.80;;
3767;SDS011;1899;49.966;7.106;2024-01-27T12:50:09;11.90;;;6.90;;
3767;SDS011;1899;49.966;7.106;2024-01-27T12:52:35;14.10;;;7.23;;
3767;SDS011;1899;49.966;7.106;2024-01-27T12:55:00;16.47;;;7.90;;
3767;SDS011;1899;49.966;7.106;2024-01-27T12:57:25;13.73;;;8.00;;
3767;SDS011;1899;49.966;7.106;2024-01-27T12:59:50;14.77;;;8.93;;
3767;SDS011;1899;49.966;7.106;2024-01-27T13:02:16;13.87;;;8.93;;
3767;SDS011;1899;49.966;7.106;2024-01-27T13:04:42;15.23;;;9.87;;
3767;SDS011;1899;49.966;7.106;2024-01-27T13:07:07;14.00;;;7.70;;
3767;SDS011;1899;49.966;7.106;2024-01-27T13:09:33;13.73;;;7.57;;
3767;SDS011;1899;49.966;7.106;2024-01-27T13:11:58;12.43;;;7.17;;
3767;SDS011;1899;49.966;7.106;2024-01-27T13:14:23;12.23;;;7.40;;
3767;SDS011;1899;49.966;7.106;2024-01-27T13:16:48;15.43;;;8.87;;
3767;SDS011;1899;49.966;7.106;2024-01-27T13:19:14;11.37;;;7.33;;
3767;SDS011;1899;49.966;7.106;2024-01-27T13:21:39;10.23;;;6.90;;
3767;SDS011;1899;49.966;7.106;2024-01-27T13:24:05;12.73;;;7.77;;
3767;SDS011;1899;49.966;7.106;2024-01-27T13:26:33;10.70;;;7.70;;
3767;SDS011;1899;49.966;7.106;2024-01-27T13:29:03;10.80;;;6.37;;
3767;SDS011;1899;49.966;7.106;2024-01-27T13:31:28;13.77;;;6.73;;
3767;SDS011;1899;49.966;7.106;2024-01-27T13:33:54;9.13;;;6.07;;
3767;SDS011;1899;49.966;7.106;2024-01-27T13:36:19;10.63;;;6.73;;
3767;SDS011;1899;49.966;7.106;2024-01-27T13:38:44;11.60;;;6.90;;
3767;SDS011;1899;49.966;7.106;2024-01-27T13:41:10;12.07;;;7.43;;
3767;SDS011;1899;49.966;7.106;2024-01-27T13:43:35;22.87;;;8.53;;
3767;SDS011;1899;49.966;7.106;2024-01-27T13:46:00;13.50;;;7.43;;
3767;SDS011;1899;49.966;7.106;2024-01-27T13:48:25;14.77;;;6.73;;
3767;SDS011;1899;49.966;7.106;2024-01-27T13:50:52;9.17;;;6.20;;
3767;SDS011;1899;49.966;7.106;2024-01-27T13:53:17;12.80;;;6.20;;
3767;SDS011;1899;49.966;7.106;2024-01-27T13:55:43;11.43;;;6.50;;
3767;SDS011;1899;49.966;7.106;2024-01-27T13:58:09;13.60;;;6.00;;
3767;SDS011;1899;49.966;7.106;2024-01-27T14:00:34;15.40;;;6.13;;
3767;SDS011;1899;49.966;7.106;2024-01-27T14:03:00;8.53;;;5.57;;
3767;SDS011;1899;49.966;7.106;2024-01-27T14:05:25;10.07;;;5.87;;
3767;SDS011;1899;49.966;7.106;2024-01-27T14:07:51;13.77;;;6.77;;
3767;SDS011;1899;49.966;7.106;2024-01-27T14:10:16;9.93;;;7.10;;
3767;SDS011;1899;49.966;7.106;2024-01-27T14:12:41;12.13;;;7.20;;
3767;SDS011;1899;49.966;7.106;2024-01-27T14:15:08;14.70;;;6.90;;
3767;SDS011;1899;49.966;7.106;2024-01-27T14:17:34;15.20;;;7.60;;
3767;SDS011;1899;49.966;7.106;2024-01-27T14:20:01;15.90;;;8.23;;
3767;SDS011;1899;49.966;7.106;2024-01-27T14:22:26;15.07;;;7.90;;
3767;SDS011;1899;49.966;7.106;2024-01-27T14:24:52;11.73;;;8.10;;
3767;SDS011;1899;49.966;7.106;2024-01-27T14:27:17;15.83;;;8.00;;
3767;SDS011;1899;49.966;7.106;2024-01-27T14:29:45;13.83;;;7.37;;
3767;SDS011;1899;49.966;7.106;2024-01-27T14:32:10;13.90;;;6.73;;
3767;SDS011;1899;49.966;7.106;2024-01-27T14:34:36;14.30;;;7.37;;
3767;SDS011;1899;49.966;7.106;2024-01-27T14:37:01;9.30;;;5.77;;
3767;SDS011;1899;49.966;7.106;2024-01-27T14:39:27;13.93;;;6.40;;
3767;SDS011;1899;49.966;7.106;2024-01-27T14:41:53;9.97;;;5.37;;
3767;SDS011;1899;49.966;7.106;2024-01-27T14:44:18;11.47;;;5.67;;
3767;SDS011;1899;49.966;7.106;2024-01-27T14:46:43;11.40;;;5.50;;
3767;SDS011;1899;49.966;7.106;2024-01-27T14:49:08;10.30;;;4.67;;
3767;SDS011;1899;49.966;7.106;2024-01-27T14:51:34;11.27;;;4.60;;
3767;SDS011;1899;49.966;7.106;2024-01-27T14:54:00;9.00;;;4.43;;
3767;SDS011;1899;49.966;7.106;2024-01-27T14:56:29;8.00;;;4.33;;